sensor_id;sensor_type;location;lat;lon;timestamp;pressure;altitude;pressure_sealevel;temperature;humidity
21234;BME280;10774;42.178;26.578;2023-05-23T00:01:29;99660.81;;;14.39;100.00
21234;BME280;10774;42.178;26.578;2023-05-23T00:04:01;99663.41;;;14.62;100.00
21234;BME280;10774;42.178;26.578;2023-05-23T00:06:27;99676.63;;;14.33;100.00
21234;BME280;10774;42.178;26.578;2023-05-23T00:08:52;99670.34;;;14.44;100.00
21234;BME280;10774;42.178;26.578;2023-05-23T00:11:18;99673.22;;;14.63;100.00
21234;BME280;10774;42.178;26.578;2023-05-23T00:13:44;99674.31;;;14.39;100.00
21234;BME280;10774;42.178;26.578;2023-05-23T00:16:10;99669.41;;;14.65;100.00
21234;BME280;10774;42.178;26.578;2023-05-23T00:18:36;99683.06;;;14.85;100.00
21234;BME280;10774;42.178;26.578;2023-05-23T00:21:02;99666.78;;;14.75;100.00
21234;BME280;10774;42.178;26.578;2023-05-23T00:23:28;99667.06;;;14.72;100.00
21234;BME280;10774;42.178;26.578;2023-05-23T00:25:54;99672.06;;;14.56;100.00
21234;BME280;10774;42.178;26.578;2023-05-23T00:28:20;99672.31;;;14.74;100.00
21234;BME280;10774;42.178;26.578;2023-05-23T00:30:46;99660.13;;;14.58;100.00
21234;BME280;10774;42.178;26.578;2023-05-23T00:33:15;99678.19;;;14.79;100.00
21234;BME280;10774;42.178;26.578;2023-05-23T00:35:41;99677.13;;;14.91;100.00
21234;BME280;10774;42.178;26.578;2023-05-23T00:38:06;99687.28;;;14.99;100.00
21234;BME280;10774;42.178;26.578;2023-05-23T00:40:33;99683.75;;;15.08;100.00
21234;BME280;10774;42.178;26.578;2023-05-23T00:42:59;99680.09;;;15.09;100.00
21234;BME280;10774;42.178;26.578;2023-05-23T00:45:25;99671.00;;;15.10;100.00
21234;BME280;10774;42.178;26.578;2023-05-23T00:47:51;99669.44;;;15.17;100.00
21234;BME280;10774;42.178;26.578;2023-05-23T00:50:17;99667.81;;;15.05;100.00
21234;BME280;10774;42.178;26.578;2023-05-23T00:52:45;99679.69;;;14.51;100.00
21234;BME280;10774;42.178;26.578;2023-05-23T00:55:12;99662.34;;;14.53;100.00
21234;BME280;10774;42.178;26.578;2023-05-23T00:57:39;99654.53;;;14.50;100.00
21234;BME280;10774;42.178;26.578;2023-05-23T01:02:31;99680.94;;;14.03;100.00
21234;BME280;10774;42.178;26.578;2023-05-23T01:05:00;99663.06;;;13.80;100.00
21234;BME280;10774;42.178;26.578;2023-05-23T01:07:26;99681.38;;;14.20;100.00
21234;BME280;10774;42.178;26.578;2023-05-23T01:09:51;99680.16;;;14.45;100.00
21234;BME280;10774;42.178;26.578;2023-05-23T01:15:18;99680.66;;;14.71;100.00
21234;BME280;10774;42.178;26.578;2023-05-23T01:18:01;99669.00;;;14.70;100.00
21234;BME280;10774;42.178;26.578;2023-05-23T01:20:34;99677.97;;;14.91;100.00
21234;BME280;10774;42.178;26.578;2023-05-23T01:28:45;99669.28;;;14.67;100.00
21234;BME280;10774;42.178;26.578;2023-05-23T01:31:11;99673.09;;;14.85;100.00
21234;BME280;10774;42.178;26.578;2023-05-23T01:33:39;99656.81;;;14.76;100.00
21234;BME280;10774;42.178;26.578;2023-05-23T01:36:05;99670.16;;;14.88;100.00
21234;BME280;10774;42.178;26.578;2023-05-23T01:38:32;99678.31;;;14.98;100.00
21234;BME280;10774;42.178;26.578;2023-05-23T01:40:57;99682.72;;;14.78;100.00
21234;BME280;10774;42.178;26.578;2023-05-23T01:43:23;99686.16;;;14.80;100.00
21234;BME280;10774;42.178;26.578;2023-05-23T01:45:50;99672.09;;;14.86;100.00
21234;BME280;10774;42.178;26.578;2023-05-23T01:48:17;99683.13;;;14.95;100.00
21234;BME280;10774;42.178;26.578;2023-05-23T01:50:43;99670.16;;;14.88;100.00
21234;BME280;10774;42.178;26.578;2023-05-23T01:53:13;99666.91;;;14.95;100.00
21234;BME280;10774;42.178;26.578;2023-05-23T01:55:41;99673.63;;;14.79;100.00
21234;BME280;10774;42.178;26.578;2023-05-23T01:58:06;99676.09;;;14.82;100.00
21234;BME280;10774;42.178;26.578;2023-05-23T02:00:32;99675.22;;;14.61;100.00
21234;BME280;10774;42.178;26.578;2023-05-23T02:02:58;99666.22;;;14.60;100.00
21234;BME280;10774;42.178;26.578;2023-05-23T02:05:23;99684.97;;;14.73;100.00
21234;BME280;10774;42.178;26.578;2023-05-23T02:07:49;99667.53;;;14.77;100.00
21234;BME280;10774;42.178;26.578;2023-05-23T02:10:14;99659.13;;;14.80;100.00
21234;BME280;10774;42.178;26.578;2023-05-23T02:12:40;99664.22;;;14.95;100.00
21234;BME280;10774;42.178;26.578;2023-05-23T02:15:06;99675.66;;;15.08;100.00
21234;BME280;10774;42.178;26.578;2023-05-23T02:17:31;99675.84;;;15.16;100.00
21234;BME280;10774;42.178;26.578;2023-05-23T02:19:57;99655.94;;;15.17;100.00
21234;BME280;10774;42.178;26.578;2023-05-23T02:22:23;99662.25;;;15.27;100.00
21234;BME280;10774;42.178;26.578;2023-05-23T02:24:49;99680.81;;;15.41;100.00
21234;BME280;10774;42.178;26.578;2023-05-23T02:27:15;99661.47;;;15.15;100.00
21234;BME280;10774;42.178;26.578;2023-05-23T02:29:40;99677.16;;;15.22;100.00
21234;BME280;10774;42.178;26.578;2023-05-23T02:32:06;99678.34;;;15.08;100.00
21234;BME280;10774;42.178;26.578;2023-05-23T02:34:31;99672.31;;;14.95;100.00
21234;BME280;10774;42.178;26.578;2023-05-23T02:36:57;99662.81;;;14.79;100.00
21234;BME280;10774;42.178;26.578;2023-05-23T02:39:22;99683.91;;;14.85;100.00
21234;BME280;10774;42.178;26.578;2023-05-23T02:41:48;99678.44;;;14.97;100.00
21234;BME280;10774;42.178;26.578;2023-05-23T02:44:13;99668.94;;;14.60;100.00
21234;BME280;10774;42.178;26.578;2023-05-23T02:46:38;99669.09;;;14.80;100.00
21234;BME280;10774;42.178;26.578;2023-05-23T02:49:04;99675.25;;;14.50;100.00
21234;BME280;10774;42.178;26.578;2023-05-23T02:51:29;99691.44;;;14.61;100.00
21234;BME280;10774;42.178;26.578;2023-05-23T02:53:56;99686.94;;;14.92;100.00
21234;BME280;10774;42.178;26.578;2023-05-23T02:56:22;99665.66;;;14.78;100.00
21234;BME280;10774;42.178;26.578;2023-05-23T02:58:47;99689.69;;;14.60;100.00
21234;BME280;10774;42.178;26.578;2023-05-23T03:01:13;99674.16;;;14.73;100.00
21234;BME280;10774;42.178;26.578;2023-05-23T03:03:38;99667.75;;;14.74;100.00
21234;BME280;10774;42.178;26.578;2023-05-23T03:06:06;99679.81;;;14.70;100.00
21234;BME280;10774;42.178;26.578;2023-05-23T03:08:31;99674.56;;;14.89;100.00
21234;BME280;10774;42.178;26.578;2023-05-23T03:10:57;99663.75;;;14.89;100.00
21234;BME280;10774;42.178;26.578;2023-05-23T03:13:22;99677.25;;;15.10;100.00
21234;BME280;10774;42.178;26.578;2023-05-23T03:15:48;99643.84;;;14.90;100.00
21234;BME280;10774;42.178;26.578;2023-05-23T03:18:13;99652.81;;;14.70;100.00
21234;BME280;10774;42.178;26.578;2023-05-23T03:20:38;99680.28;;;14.75;100.00
21234;BME280;10774;42.178;26.578;2023-05-23T03:23:04;99678.50;;;14.85;100.00
21234;BME280;10774;42.178;26.578;2023-05-23T03:25:29;99659.81;;;14.73;100.00
21234;BME280;10774;42.178;26.578;2023-05-23T03:27:55;99663.88;;;14.67;100.00
21234;BME280;10774;42.178;26.578;2023-05-23T03:30:20;99676.97;;;14.51;100.00
21234;BME280;10774;42.178;26.578;2023-05-23T03:32:46;99679.88;;;14.59;100.00
21234;BME280;10774;42.178;26.578;2023-05-23T03:35:11;99694.31;;;14.69;100.00
21234;BME280;10774;42.178;26.578;2023-05-23T03:37:37;99690.38;;;14.73;100.00
21234;BME280;10774;42.178;26.578;2023-05-23T03:40:03;99685.03;;;14.83;100.00
21234;BME280;10774;42.178;26.578;2023-05-23T03:42:29;99675.09;;;14.83;100.00
21234;BME280;10774;42.178;26.578;2023-05-23T03:44:55;99692.41;;;14.81;100.00
21234;BME280;10774;42.178;26.578;2023-05-23T03:47:21;99674.81;;;14.86;100.00
21234;BME280;10774;42.178;26.578;2023-05-23T03:49:48;99692.09;;;14.74;100.00
21234;BME280;10774;42.178;26.578;2023-05-23T03:52:14;99686.38;;;14.88;100.00
21234;BME280;10774;42.178;26.578;2023-05-23T03:54:39;99691.03;;;14.86;100.00
21234;BME280;10774;42.178;26.578;2023-05-23T03:57:04;99693.22;;;14.93;100.00
21234;BME280;10774;42.178;26.578;2023-05-23T03:59:31;99686.53;;;14.97;100.00
21234;BME280;10774;42.178;26.578;2023-05-23T04:01:56;99693.94;;;14.95;100.00
21234;BME280;10774;42.178;26.578;2023-05-23T04:04:23;99689.59;;;14.82;100.00
21234;BME280;10774;42.178;26.578;2023-05-23T04:06:49;99693.16;;;15.04;100.00
21234;BME280;10774;42.178;26.578;2023-05-23T04:09:15;99686.13;;;15.22;100.00
21234;BME280;10774;42.178;26.578;2023-05-23T04:11:42;99682.53;;;15.42;100.00
21234;BME280;10774;42.178;26.578;2023-05-23T04:14:07;99671.47;;;15.46;100.00
21234;BME280;10774;42.178;26.578;2023-05-23T04:16:32;99695.97;;;15.54;100.00
21234;BME280;10774;42.178;26.578;2023-05-23T04:19:00;99696.75;;;15.44;100.00
21234;BME280;10774;42.178;26.578;2023-05-23T04:21:26;99694.41;;;15.00;100.00
21234;BME280;10774;42.178;26.578;2023-05-23T04:23:52;99693.69;;;14.98;100.00
21234;BME280;10774;42.178;26.578;2023-05-23T04:26:18;99706.28;;;15.08;100.00
21234;BME280;10774;42.178;26.578;2023-05-23T04:28:43;99693.25;;;15.23;100.00
21234;BME280;10774;42.178;26.578;2023-05-23T04:31:11;99698.06;;;15.40;100.00
21234;BME280;10774;42.178;26.578;2023-05-23T04:33:37;99682.06;;;15.07;100.00
21234;BME280;10774;42.178;26.578;2023-05-23T04:36:03;99701.91;;;14.96;100.00
21234;BME280;10774;42.178;26.578;2023-05-23T04:38:28;99705.59;;;15.16;100.00
21234;BME280;10774;42.178;26.578;2023-05-23T04:40:54;99701.09;;;15.26;100.00
21234;BME280;10774;42.178;26.578;2023-05-23T04:43:19;99699.16;;;15.38;100.00
21234;BME280;10774;42.178;26.578;2023-05-23T04:45:46;99702.47;;;15.41;100.00
21234;BME280;10774;42.178;26.578;2023-05-23T04:48:14;99715.63;;;15.56;100.00
21234;BME280;10774;42.178;26.578;2023-05-23T04:50:41;99721.72;;;15.27;100.00
21234;BME280;10774;42.178;26.578;2023-05-23T04:53:06;99717.78;;;15.31;100.00
21234;BME280;10774;42.178;26.578;2023-05-23T04:55:32;99726.97;;;15.50;100.00
21234;BME280;10774;42.178;26.578;2023-05-23T04:57:59;99711.09;;;15.56;100.00
21234;BME280;10774;42.178;26.578;2023-05-23T05:00:25;99721.44;;;15.72;100.00
21234;BME280;10774;42.178;26.578;2023-05-23T05:02:50;99723.13;;;15.73;100.00
21234;BME280;10774;42.178;26.578;2023-05-23T05:05:16;99717.81;;;15.92;100.00
21234;BME280;10774;42.178;26.578;2023-05-23T05:07:41;99716.91;;;15.82;100.00
21234;BME280;10774;42.178;26.578;2023-05-23T05:10:07;99725.25;;;16.10;100.00
21234;BME280;10774;42.178;26.578;2023-05-23T05:12:33;99717.13;;;16.10;100.00
21234;BME280;10774;42.178;26.578;2023-05-23T05:14:58;99719.09;;;16.08;100.00
21234;BME280;10774;42.178;26.578;2023-05-23T05:17:24;99701.38;;;15.54;100.00
21234;BME280;10774;42.178;26.578;2023-05-23T05:19:49;99704.94;;;15.85;100.00
21234;BME280;10774;42.178;26.578;2023-05-23T05:22:15;99722.13;;;16.14;100.00
21234;BME280;10774;42.178;26.578;2023-05-23T05:24:40;99702.22;;;16.35;100.00
21234;BME280;10774;42.178;26.578;2023-05-23T05:27:06;99705.91;;;16.34;100.00
21234;BME280;10774;42.178;26.578;2023-05-23T05:29:33;99717.47;;;16.45;100.00
21234;BME280;10774;42.178;26.578;2023-05-23T05:31:59;99699.63;;;16.33;100.00
21234;BME280;10774;42.178;26.578;2023-05-23T05:34:25;99729.50;;;16.03;100.00
21234;BME280;10774;42.178;26.578;2023-05-23T05:36:51;99720.59;;;16.31;100.00
21234;BME280;10774;42.178;26.578;2023-05-23T05:39:21;99729.06;;;16.07;100.00
21234;BME280;10774;42.178;26.578;2023-05-23T05:41:47;99729.78;;;16.00;100.00
21234;BME280;10774;42.178;26.578;2023-05-23T05:44:13;99734.63;;;16.06;100.00
21234;BME280;10774;42.178;26.578;2023-05-23T05:46:38;99727.69;;;15.73;100.00
21234;BME280;10774;42.178;26.578;2023-05-23T05:49:03;99745.03;;;16.01;100.00
21234;BME280;10774;42.178;26.578;2023-05-23T05:51:29;99736.38;;;15.76;100.00
21234;BME280;10774;42.178;26.578;2023-05-23T05:53:55;99721.97;;;15.66;100.00
21234;BME280;10774;42.178;26.578;2023-05-23T05:56:21;99729.66;;;15.71;100.00
21234;BME280;10774;42.178;26.578;2023-05-23T05:58:47;99747.13;;;15.87;100.00
21234;BME280;10774;42.178;26.578;2023-05-23T06:01:12;99741.28;;;16.52;100.00
21234;BME280;10774;42.178;26.578;2023-05-23T06:03:38;99731.00;;;16.55;100.00
21234;BME280;10774;42.178;26.578;2023-05-23T06:06:05;99728.75;;;16.51;100.00
21234;BME280;10774;42.178;26.578;2023-05-23T06:08:30;99742.44;;;16.59;100.00
21234;BME280;10774;42.178;26.578;2023-05-23T06:10:56;99743.56;;;16.66;100.00
21234;BME280;10774;42.178;26.578;2023-05-23T06:13:21;99738.28;;;16.55;100.00
21234;BME280;10774;42.178;26.578;2023-05-23T06:15:47;99745.31;;;17.06;100.00
21234;BME280;10774;42.178;26.578;2023-05-23T06:18:12;99740.19;;;16.93;100.00
21234;BME280;10774;42.178;26.578;2023-05-23T06:20:38;99734.91;;;16.82;100.00
21234;BME280;10774;42.178;26.578;2023-05-23T06:23:03;99738.13;;;17.24;100.00
21234;BME280;10774;42.178;26.578;2023-05-23T06:25:30;99731.59;;;16.97;100.00
21234;BME280;10774;42.178;26.578;2023-05-23T06:27:55;99738.13;;;17.24;100.00
21234;BME280;10774;42.178;26.578;2023-05-23T06:30:21;99728.19;;;17.62;100.00
21234;BME280;10774;42.178;26.578;2023-05-23T06:32:47;99726.63;;;17.59;100.00
21234;BME280;10774;42.178;26.578;2023-05-23T06:35:12;99720.34;;;17.96;100.00
21234;BME280;10774;42.178;26.578;2023-05-23T06:37:38;99734.97;;;18.58;100.00
21234;BME280;10774;42.178;26.578;2023-05-23T06:40:07;99730.22;;;19.14;100.00
21234;BME280;10774;42.178;26.578;2023-05-23T06:42:33;99723.28;;;18.75;100.00
21234;BME280;10774;42.178;26.578;2023-05-23T06:44:59;99722.97;;;18.78;100.00
21234;BME280;10774;42.178;26.578;2023-05-23T06:47:24;99722.69;;;18.54;100.00
21234;BME280;10774;42.178;26.578;2023-05-23T06:49:49;99739.22;;;18.88;100.00
21234;BME280;10774;42.178;26.578;2023-05-23T06:52:15;99730.69;;;18.55;100.00
21234;BME280;10774;42.178;26.578;2023-05-23T06:54:40;99726.88;;;18.48;100.00
21234;BME280;10774;42.178;26.578;2023-05-23T06:57:06;99732.94;;;18.24;100.00
21234;BME280;10774;42.178;26.578;2023-05-23T06:59:31;99737.75;;;18.48;100.00
21234;BME280;10774;42.178;26.578;2023-05-23T07:01:56;99723.25;;;18.58;100.00
21234;BME280;10774;42.178;26.578;2023-05-23T07:04:22;99720.31;;;18.23;100.00
21234;BME280;10774;42.178;26.578;2023-05-23T07:06:47;99711.94;;;18.17;100.00
21234;BME280;10774;42.178;26.578;2023-05-23T07:09:13;99713.78;;;18.62;100.00
21234;BME280;10774;42.178;26.578;2023-05-23T07:11:38;99687.19;;;18.91;100.00
21234;BME280;10774;42.178;26.578;2023-05-23T07:14:05;99697.16;;;19.00;100.00
21234;BME280;10774;42.178;26.578;2023-05-23T07:16:32;99711.31;;;18.86;100.00
21234;BME280;10774;42.178;26.578;2023-05-23T07:19:00;99675.84;;;18.96;100.00
21234;BME280;10774;42.178;26.578;2023-05-23T07:21:25;99696.97;;;19.02;100.00
21234;BME280;10774;42.178;26.578;2023-05-23T07:23:51;99690.38;;;19.04;100.00
21234;BME280;10774;42.178;26.578;2023-05-23T07:26:16;99699.16;;;19.50;100.00
21234;BME280;10774;42.178;26.578;2023-05-23T07:28:41;99690.19;;;19.84;100.00
21234;BME280;10774;42.178;26.578;2023-05-23T07:31:07;99680.09;;;19.42;100.00
21234;BME280;10774;42.178;26.578;2023-05-23T07:33:33;99680.38;;;19.99;100.00
21234;BME280;10774;42.178;26.578;2023-05-23T07:35:59;99690.19;;;20.43;100.00
21234;BME280;10774;42.178;26.578;2023-05-23T07:38:25;99680.78;;;20.21;100.00
21234;BME280;10774;42.178;26.578;2023-05-23T07:40:51;99668.53;;;20.25;100.00
21234;BME280;10774;42.178;26.578;2023-05-23T07:43:16;99673.22;;;20.57;98.78
21234;BME280;10774;42.178;26.578;2023-05-23T07:45:42;99675.72;;;20.42;97.56
21234;BME280;10774;42.178;26.578;2023-05-23T07:48:07;99689.09;;;20.78;92.44
21234;BME280;10774;42.178;26.578;2023-05-23T07:50:33;99666.41;;;20.02;95.22
21234;BME280;10774;42.178;26.578;2023-05-23T07:52:58;99685.75;;;20.33;93.11
21234;BME280;10774;42.178;26.578;2023-05-23T07:55:24;99671.00;;;20.60;90.39
21234;BME280;10774;42.178;26.578;2023-05-23T07:57:49;99679.81;;;21.20;89.58
21234;BME280;10774;42.178;26.578;2023-05-23T08:00:16;99687.03;;;20.96;86.36
21234;BME280;10774;42.178;26.578;2023-05-23T08:02:42;99671.84;;;20.61;89.62
21234;BME280;10774;42.178;26.578;2023-05-23T08:05:08;99670.66;;;20.96;90.45
21234;BME280;10774;42.178;26.578;2023-05-23T08:07:33;99666.19;;;21.20;88.16
21234;BME280;10774;42.178;26.578;2023-05-23T08:09:59;99674.59;;;20.85;85.82
21234;BME280;10774;42.178;26.578;2023-05-23T08:12:24;99683.59;;;21.02;86.16
21234;BME280;10774;42.178;26.578;2023-05-23T08:14:50;99665.88;;;21.14;81.67
21234;BME280;10774;42.178;26.578;2023-05-23T08:17:15;99654.47;;;21.75;82.17
21234;BME280;10774;42.178;26.578;2023-05-23T08:19:40;99669.22;;;21.49;81.01
21234;BME280;10774;42.178;26.578;2023-05-23T08:22:06;99670.25;;;21.48;77.26
21234;BME280;10774;42.178;26.578;2023-05-23T08:24:31;99675.44;;;20.86;83.46
21234;BME280;10774;42.178;26.578;2023-05-23T08:26:58;99653.88;;;21.40;82.27
21234;BME280;10774;42.178;26.578;2023-05-23T08:29:24;99658.00;;;21.03;83.20
21234;BME280;10774;42.178;26.578;2023-05-23T08:31:49;99663.16;;;21.31;81.28
21234;BME280;10774;42.178;26.578;2023-05-23T08:34:15;99661.41;;;21.22;81.93
21234;BME280;10774;42.178;26.578;2023-05-23T08:36:40;99669.97;;;21.02;80.31
21234;BME280;10774;42.178;26.578;2023-05-23T08:39:07;99662.78;;;21.34;82.11
21234;BME280;10774;42.178;26.578;2023-05-23T08:41:33;99658.19;;;22.21;76.03
21234;BME280;10774;42.178;26.578;2023-05-23T08:43:59;99663.75;;;21.97;73.75
21234;BME280;10774;42.178;26.578;2023-05-23T08:46:25;99632.09;;;21.15;76.13
21234;BME280;10774;42.178;26.578;2023-05-23T08:48:53;99665.88;;;21.06;77.63
21234;BME280;10774;42.178;26.578;2023-05-23T08:51:24;99657.69;;;20.90;80.41
21234;BME280;10774;42.178;26.578;2023-05-23T08:53:50;99663.81;;;21.17;78.10
21234;BME280;10774;42.178;26.578;2023-05-23T08:56:18;99662.78;;;21.42;76.13
21234;BME280;10774;42.178;26.578;2023-05-23T08:58:45;99651.78;;;21.98;75.60
21234;BME280;10774;42.178;26.578;2023-05-23T09:01:12;99659.59;;;22.86;65.59
21234;BME280;10774;42.178;26.578;2023-05-23T09:03:39;99647.91;;;23.44;61.33
21234;BME280;10774;42.178;26.578;2023-05-23T09:06:07;99670.38;;;24.14;59.24
21234;BME280;10774;42.178;26.578;2023-05-23T09:08:33;99648.56;;;24.85;58.93
21234;BME280;10774;42.178;26.578;2023-05-23T09:10:59;99650.81;;;25.24;56.19
21234;BME280;10774;42.178;26.578;2023-05-23T09:13:28;99661.31;;;25.42;55.34
21234;BME280;10774;42.178;26.578;2023-05-23T09:18:27;99653.59;;;24.23;56.85
21234;BME280;10774;42.178;26.578;2023-05-23T09:20:57;99634.81;;;23.69;59.29
21234;BME280;10774;42.178;26.578;2023-05-23T09:23:23;99650.09;;;23.49;60.10
21234;BME280;10774;42.178;26.578;2023-05-23T09:25:48;99657.09;;;23.37;61.31
21234;BME280;10774;42.178;26.578;2023-05-23T09:28:13;99661.22;;;23.33;60.24
21234;BME280;10774;42.178;26.578;2023-05-23T09:30:39;99654.84;;;23.03;60.39
21234;BME280;10774;42.178;26.578;2023-05-23T09:33:04;99660.47;;;23.39;61.89
21234;BME280;10774;42.178;26.578;2023-05-23T09:35:30;99648.09;;;24.02;60.47
21234;BME280;10774;42.178;26.578;2023-05-23T09:37:56;99655.25;;;24.54;59.17
21234;BME280;10774;42.178;26.578;2023-05-23T09:40:28;99661.78;;;24.74;57.07
21234;BME280;10774;42.178;26.578;2023-05-23T09:42:53;99664.56;;;25.02;56.99
21234;BME280;10774;42.178;26.578;2023-05-23T09:45:19;99654.19;;;24.76;55.90
21234;BME280;10774;42.178;26.578;2023-05-23T09:47:51;99651.41;;;24.98;55.11
21234;BME280;10774;42.178;26.578;2023-05-23T09:50:16;99650.53;;;24.48;54.86
21234;BME280;10774;42.178;26.578;2023-05-23T09:52:42;99656.94;;;24.19;56.81
21234;BME280;10774;42.178;26.578;2023-05-23T09:55:08;99638.16;;;24.01;57.00
21234;BME280;10774;42.178;26.578;2023-05-23T09:57:34;99650.81;;;24.74;55.78
21234;BME280;10774;42.178;26.578;2023-05-23T10:00:02;99646.22;;;24.82;55.91
21234;BME280;10774;42.178;26.578;2023-05-23T10:05:37;99649.75;;;24.18;55.97
21234;BME280;10774;42.178;26.578;2023-05-23T10:08:11;99647.34;;;24.30;55.15
21234;BME280;10774;42.178;26.578;2023-05-23T10:13:45;99647.91;;;24.40;58.11
21234;BME280;10774;42.178;26.578;2023-05-23T10:21:57;99645.50;;;23.64;58.16
21234;BME280;10774;42.178;26.578;2023-05-23T10:24:24;99645.19;;;23.89;58.18
21234;BME280;10774;42.178;26.578;2023-05-23T10:26:50;99648.06;;;24.17;58.85
21234;BME280;10774;42.178;26.578;2023-05-23T10:29:16;99635.41;;;24.52;57.38
21234;BME280;10774;42.178;26.578;2023-05-23T10:31:42;99640.72;;;24.39;55.85
21234;BME280;10774;42.178;26.578;2023-05-23T10:34:16;99647.94;;;23.89;57.24
21234;BME280;10774;42.178;26.578;2023-05-23T10:37:04;99639.16;;;24.72;56.32
21234;BME280;10774;42.178;26.578;2023-05-23T10:39:41;99638.00;;;23.43;56.27
21234;BME280;10774;42.178;26.578;2023-05-23T10:42:16;99636.81;;;24.69;55.35
21234;BME280;10774;42.178;26.578;2023-05-23T10:44:43;99639.22;;;23.26;55.87
21234;BME280;10774;42.178;26.578;2023-05-23T10:47:09;99632.50;;;23.88;56.84
21234;BME280;10774;42.178;26.578;2023-05-23T10:49:37;99636.13;;;24.89;53.94
21234;BME280;10774;42.178;26.578;2023-05-23T10:52:04;99622.72;;;25.00;53.86
21234;BME280;10774;42.178;26.578;2023-05-23T10:57:17;99622.16;;;24.84;54.04
21234;BME280;10774;42.178;26.578;2023-05-23T10:59:49;99631.22;;;23.69;55.71
21234;BME280;10774;42.178;26.578;2023-05-23T11:02:18;99610.13;;;23.40;57.85
21234;BME280;10774;42.178;26.578;2023-05-23T11:04:44;99622.72;;;23.79;57.90
21234;BME280;10774;42.178;26.578;2023-05-23T11:07:29;99624.56;;;23.34;58.38
21234;BME280;10774;42.178;26.578;2023-05-23T11:10:12;99636.59;;;23.77;57.65
21234;BME280;10774;42.178;26.578;2023-05-23T11:12:42;99632.84;;;23.63;58.25
21234;BME280;10774;42.178;26.578;2023-05-23T11:17:53;99626.19;;;23.58;60.88
21234;BME280;10774;42.178;26.578;2023-05-23T11:20:21;99639.50;;;23.61;63.45
21234;BME280;10774;42.178;26.578;2023-05-23T11:23:02;99635.19;;;23.66;66.02
21234;BME280;10774;42.178;26.578;2023-05-23T11:25:54;99651.59;;;23.96;65.53
21234;BME280;10774;42.178;26.578;2023-05-23T11:28:19;99643.16;;;24.34;65.04
21234;BME280;10774;42.178;26.578;2023-05-23T11:30:48;99636.16;;;25.10;62.99
21234;BME280;10774;42.178;26.578;2023-05-23T11:33:15;99635.59;;;25.21;59.81
21234;BME280;10774;42.178;26.578;2023-05-23T11:35:47;99638.34;;;25.21;57.95
21234;BME280;10774;42.178;26.578;2023-05-23T11:38:17;99638.38;;;23.55;60.68
21234;BME280;10774;42.178;26.578;2023-05-23T11:40:44;99629.13;;;23.27;63.41
21234;BME280;10774;42.178;26.578;2023-05-23T11:43:15;99634.88;;;23.17;63.86
21234;BME280;10774;42.178;26.578;2023-05-23T11:45:41;99634.00;;;24.05;62.64
21234;BME280;10774;42.178;26.578;2023-05-23T11:48:11;99637.16;;;24.60;59.58
21234;BME280;10774;42.178;26.578;2023-05-23T11:50:52;99637.75;;;25.26;55.97
21234;BME280;10774;42.178;26.578;2023-05-23T11:53:21;99626.47;;;25.49;54.90
21234;BME280;10774;42.178;26.578;2023-05-23T11:55:51;99617.00;;;25.58;53.77
21234;BME280;10774;42.178;26.578;2023-05-23T11:58:20;99626.06;;;26.48;52.68
21234;BME280;10774;42.178;26.578;2023-05-23T12:00:45;99627.81;;;26.95;50.54
21234;BME280;10774;42.178;26.578;2023-05-23T12:03:11;99628.66;;;26.08;50.55
21234;BME280;10774;42.178;26.578;2023-05-23T12:05:37;99617.03;;;26.06;52.24
21234;BME280;10774;42.178;26.578;2023-05-23T12:08:02;99626.31;;;25.98;52.87
21234;BME280;10774;42.178;26.578;2023-05-23T12:10:28;99624.84;;;26.02;52.98
21234;BME280;10774;42.178;26.578;2023-05-23T12:12:53;99607.34;;;25.69;53.44
21234;BME280;10774;42.178;26.578;2023-05-23T12:15:24;99620.13;;;25.20;52.70
21234;BME280;10774;42.178;26.578;2023-05-23T12:17:52;99617.56;;;24.91;52.97
21234;BME280;10774;42.178;26.578;2023-05-23T12:20:18;99611.28;;;23.75;55.22
21234;BME280;10774;42.178;26.578;2023-05-23T12:22:44;99612.75;;;23.92;56.84
21234;BME280;10774;42.178;26.578;2023-05-23T12:25:09;99618.16;;;23.86;56.93
21234;BME280;10774;42.178;26.578;2023-05-23T12:27:35;99607.94;;;24.52;57.73
21234;BME280;10774;42.178;26.578;2023-05-23T12:30:08;99605.72;;;24.41;55.66
21234;BME280;10774;42.178;26.578;2023-05-23T12:32:38;99592.50;;;24.72;54.76
21234;BME280;10774;42.178;26.578;2023-05-23T12:35:04;99588.31;;;24.76;53.41
21234;BME280;10774;42.178;26.578;2023-05-23T12:37:29;99583.66;;;25.26;52.55
21234;BME280;10774;42.178;26.578;2023-05-23T12:39:55;99589.06;;;24.92;53.29
21234;BME280;10774;42.178;26.578;2023-05-23T12:42:20;99592.31;;;25.02;52.48
21234;BME280;10774;42.178;26.578;2023-05-23T12:44:50;99596.91;;;24.95;51.13
21234;BME280;10774;42.178;26.578;2023-05-23T12:47:16;99587.75;;;25.78;51.05
21234;BME280;10774;42.178;26.578;2023-05-23T12:49:41;99581.84;;;26.69;48.32
21234;BME280;10774;42.178;26.578;2023-05-23T12:52:08;99587.75;;;25.44;48.42
21234;BME280;10774;42.178;26.578;2023-05-23T12:54:34;99592.34;;;24.52;50.42
21234;BME280;10774;42.178;26.578;2023-05-23T12:56:59;99577.03;;;24.93;51.24
21234;BME280;10774;42.178;26.578;2023-05-23T12:59:25;99585.97;;;25.29;49.35
21234;BME280;10774;42.178;26.578;2023-05-23T13:01:50;99584.88;;;26.00;49.55
21234;BME280;10774;42.178;26.578;2023-05-23T13:04:16;99598.47;;;27.54;46.79
21234;BME280;10774;42.178;26.578;2023-05-23T13:06:41;99576.25;;;27.35;45.71
21234;BME280;10774;42.178;26.578;2023-05-23T13:09:06;99585.44;;;26.90;46.15
21234;BME280;10774;42.178;26.578;2023-05-23T13:11:32;99585.63;;;25.80;48.10